Portada
METAR-TAF:

METAR-TAF

Aeroports :

Shahrekord, Iran

latitud: 32-20N, longitud: 050-51E, altitud: 2078 m

Observació

L'informe es va fer fa 54 minuts, a les 01:00 UTC
Vent 4 kt del Nord/Nord-Oest
Temperatura -3°C
Humitat 54%
Pressió 1022 hPa
Visibilitat 10 km o més
Núvols disperses a una alçada de 4000 ft

METAR: OIFS 160100Z 34004KT 9999 SCT040 M03/M11 Q1022

Hora: 05:24 (01:54 UTC)


TAF: manca

Observacions i pronòstics meteorològics de més de 4000 aeroports (METAR i TAF).

Les estacions disponibles són els punts grocs i vermells al mapa.

Posi el ratolí al punt desitjat per veure el nom de l'estació.

Feu clic per veure les observacions i els pronòstics meteorològics.

Per canviar el mapa: feu clic els botons verds amb una creu de color negre per apropar; al botó verd amb un guió per allunyar la imatge; o en les fletxes verdes per a mapes adjacents.


METAR-TAF: